Time;durP1;ratioP1;P1;durP2;ratioP2;P2;SDS_P1;SDS_P2;PMS_P1;PMS_P2;Temp;Humidity;BMP_temperature;BMP_pressure;BME280_temperature;BME280_humidity;BME280_pressure;Samples;Min_cycle;Max_cycle;Signal;HPM_P1;HPM_P2
2022/06/10 00:01:15;;;;;;;;;;;;;;;14.30;100.00;-25469.41;5079940;28;19916;-75
2022/06/10 00:03:42;;;;;;;;;;;;;;;14.38;100.00;-25471.44;5069577;28;20288;-72
2022/06/10 00:06:09;;;;;;;;;;;;;;;14.40;100.00;-25472.16;5079230;28;19920;-78
2022/06/10 00:08:37;;;;;;;;;;;;;;;14.43;100.00;-25472.91;5071782;28;20011;-73
2022/06/10 00:11:03;;;;;;;;;;;;;;;14.46;100.00;-25473.91;5069376;28;19920;-74
2022/06/10 00:13:30;;;;;;;;;;;;;;;14.53;100.00;-25475.81;5069968;28;19927;-73
2022/06/10 00:15:56;;;;;;;;;;;;;;;14.53;100.00;-25475.81;5059478;28;19916;-72
2022/06/10 00:18:23;;;;;;;;;;;;;;;14.59;100.00;-25477.41;5058579;28;19917;-72
2022/06/10 00:20:48;;;;;;;;;;;;;;;14.60;100.00;-25477.84;5058473;28;19924;-74
2022/06/10 00:23:15;;;;;;;;;;;;;;;14.68;100.00;-25480.19;5045502;28;19925;-72
2022/06/10 00:25:40;;;;;;;;;;;;;;;14.69;100.00;-25480.47;5076461;28;20380;-74
2022/06/10 00:28:06;;;;;;;;;;;;;;;14.66;100.00;-25479.59;5068761;28;19916;-73
2022/06/10 00:30:31;;;;;;;;;;;;;;;14.66;100.00;-25479.44;5079051;28;20280;-72
2022/06/10 00:32:59;;;;;;;;;;;;;;;14.68;100.00;-25480.19;5074507;28;19921;-73
2022/06/10 00:35:25;;;;;;;;;;;;;;;14.69;100.00;-25480.47;5057548;28;19921;-73
2022/06/10 00:37:51;;;;;;;;;;;;;;;14.74;100.00;-25481.63;5077253;28;20304;-73
2022/06/10 00:40:22;;;;;;;;;;;;;;;14.77;100.00;-25482.50;5077705;28;19920;-73
2022/06/10 00:42:48;;;;;;;;;;;;;;;14.80;100.00;-25483.38;5076830;28;19998;-73
2022/06/10 00:45:32;;;;;;;;;;;;;;;14.84;100.00;-25484.69;5079696;28;20053;-72
2022/06/10 00:47:57;;;;;;;;;;;;;;;14.85;100.00;-25484.84;5079106;28;19967;-73
2022/06/10 00:50:28;;;;;;;;;;;;;;;14.89;100.00;-25486.16;5079696;28;19965;-74
2022/06/10 00:52:56;;;;;;;;;;;;;;;14.93;100.00;-25487.19;5067468;28;20642;-74
2022/06/10 00:55:28;;;;;;;;;;;;;;;14.95;100.00;-25487.75;5059367;28;19921;-73
2022/06/10 00:57:58;;;;;;;;;;;;;;;14.98;100.00;-25488.47;5060437;28;20372;-74
2022/06/10 01:00:23;;;;;;;;;;;;;;;15.01;100.00;-25489.34;5078933;28;19920;-73
2022/06/10 01:02:49;;;;;;;;;;;;;;;15.00;100.00;-25489.22;5076401;28;20512;-73
2022/06/10 01:05:18;;;;;;;;;;;;;;;15.04;100.00;-25490.38;5059469;28;19912;-73
2022/06/10 01:07:53;;;;;;;;;;;;;;;15.05;100.00;-25490.66;5059170;28;19984;-73
2022/06/10 01:10:19;;;;;;;;;;;;;;;15.08;100.00;-25491.38;5075869;28;20603;-78
2022/06/10 01:12:55;;;;;;;;;;;;;;;15.06;100.00;-25490.81;5074984;28;19972;-80
2022/06/10 01:15:34;;;;;;;;;;;;;;;15.06;100.00;-25490.97;5057959;28;19916;-78
2022/06/10 01:18:02;;;;;;;;;;;;;;;15.03;100.00;-25490.09;5057207;28;19916;-80
2022/06/10 01:20:36;;;;;;;;;;;;;;;15.09;100.00;-25491.69;5067819;28;20049;-74
2022/06/10 01:23:32;;;;;;;;;;;;;;;15.06;100.00;-25490.97;5067045;28;19935;-73
2022/06/10 01:26:04;;;;;;;;;;;;;;;15.05;100.00;-25490.53;5068990;28;19976;-78
2022/06/10 01:28:32;;;;;;;;;;;;;;;15.06;100.00;-25490.97;5058188;28;19920;-73
2022/06/10 01:31:16;;;;;;;;;;;;;;;15.06;100.00;-25490.81;5051034;28;19920;-79
2022/06/10 01:34:01;;;;;;;;;;;;;;;15.13;100.00;-25492.84;5055828;28;19962;-80
2022/06/10 01:36:45;;;;;;;;;;;;;;;15.17;100.00;-25494.00;5057657;28;20026;-78
2022/06/10 01:39:29;;;;;;;;;;;;;;;15.13;100.00;-25492.69;5057955;28;19920;-76
2022/06/10 01:42:01;;;;;;;;;;;;;;;15.14;100.00;-25493.13;5057271;28;19922;-76
2022/06/10 01:44:37;;;;;;;;;;;;;;;15.13;100.00;-25492.84;5056984;28;19973;-79
2022/06/10 01:47:15;;;;;;;;;;;;;;;15.17;100.00;-25493.88;5056372;28;19963;-80
2022/06/10 01:49:45;;;;;;;;;;;;;;;15.17;100.00;-25494.00;5056604;28;19928;-79
2022/06/10 01:52:14;;;;;;;;;;;;;;;15.14;100.00;-25493.13;5056386;28;19924;-80
2022/06/10 01:54:44;;;;;;;;;;;;;;;15.18;100.00;-25494.31;5054345;28;19923;-79
2022/06/10 01:57:13;;;;;;;;;;;;;;;15.18;100.00;-25494.16;5059083;28;20020;-78
2022/06/10 01:59:52;;;;;;;;;;;;;;;15.16;100.00;-25493.56;5073834;28;19916;-74
2022/06/10 02:02:22;;;;;;;;;;;;;;;15.21;100.00;-25495.03;5053229;28;19921;-73
2022/06/10 02:04:53;;;;;;;;;;;;;;;15.15;100.00;-25493.44;5049443;28;19923;-73
2022/06/10 02:07:24;;;;;;;;;;;;;;;15.20;100.00;-25494.75;5055362;28;19927;-73
2022/06/10 02:09:53;;;;;;;;;;;;;;;15.20;100.00;-25494.88;5054857;28;20434;-75
2022/06/10 02:12:28;;;;;;;;;;;;;;;15.22;100.00;-25495.31;5055155;28;19916;-74
2022/06/10 02:14:59;;;;;;;;;;;;;;;15.24;100.00;-25495.91;5053287;28;19921;-73
2022/06/10 02:17:27;;;;;;;;;;;;;;;15.20;100.00;-25494.88;5051358;28;20428;-73
2022/06/10 02:19:58;;;;;;;;;;;;;;;15.21;100.00;-25495.03;5050858;28;19923;-75
2022/06/10 02:22:26;;;;;;;;;;;;;;;15.17;100.00;-25493.88;5054256;28;19921;-74
2022/06/10 02:24:55;;;;;;;;;;;;;;;15.17;100.00;-25493.88;5058693;28;20014;-77
2022/06/10 02:27:23;;;;;;;;;;;;;;;15.20;100.00;-25494.75;5054058;28;19999;-74
2022/06/10 02:29:58;;;;;;;;;;;;;;;15.16;100.00;-25493.72;5053460;28;19920;-73
2022/06/10 02:32:24;;;;;;;;;;;;;;;15.19;100.00;-25494.44;5053995;28;19927;-73
2022/06/10 02:34:50;;;;;;;;;;;;;;;15.25;100.00;-25496.34;5065337;28;20288;-75
2022/06/10 02:37:22;;;;;;;;;;;;;;;15.29;100.00;-25497.22;5073295;28;19920;-74
2022/06/10 02:40:00;;;;;;;;;;;;;;;15.25;100.00;-25496.34;5074089;28;19929;-77
2022/06/10 02:42:45;;;;;;;;;;;;;;;15.28;100.00;-25496.94;5075827;28;19916;-77
2022/06/10 02:45:13;;;;;;;;;;;;;;;15.26;100.00;-25496.63;5058609;28;19927;-80
2022/06/10 02:47:42;;;;;;;;;;;;;;;15.34;100.00;-25498.81;5055516;28;19921;-78
2022/06/10 02:50:09;;;;;;;;;;;;;;;15.25;100.00;-25496.19;5055096;28;20036;-78
2022/06/10 02:52:35;;;;;;;;;;;;;;;15.26;100.00;-25496.50;5036095;28;19921;-75
2022/06/10 02:55:00;;;;;;;;;;;;;;;15.29;100.00;-25497.22;5052897;28;19927;-74
2022/06/10 03:03:19;;;;;;;;;;;;;;;15.15;100.00;-25493.44;5072024;28;20272;-72
2022/06/10 03:06:11;;;;;;;;;;;;;;;15.11;100.00;-25492.25;5050380;28;19920;-73
2022/06/10 03:08:40;;;;;;;;;;;;;;;15.04;100.00;-25490.22;5030100;28;20357;-72
2022/06/10 03:11:14;;;;;;;;;;;;;;;14.97;100.00;-25488.34;5039011;28;19973;-79
2022/06/10 03:14:00;;;;;;;;;;;;;;;14.88;100.00;-25485.88;5049637;28;20057;-73
2022/06/10 03:16:56;;;;;;;;;;;;;;;14.78;100.00;-25482.94;5051814;28;19970;-78
2022/06/10 03:19:36;;;;;;;;;;;;;;;14.82;100.00;-25483.97;5027956;28;19924;-81
2022/06/10 03:22:02;;;;;;;;;;;;;;;14.80;100.00;-25483.53;5074853;28;19962;-78
2022/06/10 03:24:49;;;;;;;;;;;;;;;14.82;100.00;-25483.97;5073071;28;19916;-75
2022/06/10 03:27:14;;;;;;;;;;;;;;;14.83;100.00;-25484.25;5074702;28;19920;-78
2022/06/10 03:29:47;;;;;;;;;;;;;;;14.81;100.00;-25483.81;5074935;28;19970;-80
2022/06/10 03:32:17;;;;;;;;;;;;;;;14.83;100.00;-25484.41;5070281;28;19955;-80
2022/06/10 03:34:47;;;;;;;;;;;;;;;14.78;100.00;-25482.81;5050751;28;19966;-80
2022/06/10 03:37:13;;;;;;;;;;;;;;;14.72;100.00;-25481.34;5035275;28;19966;-78
2022/06/10 03:39:41;;;;;;;;;;;;;;;14.67;100.00;-25479.88;5035423;28;19921;-79
2022/06/10 03:42:16;;;;;;;;;;;;;;;14.62;100.00;-25478.28;5035336;28;19917;-79
2022/06/10 03:44:46;;;;;;;;;;;;;;;14.57;100.00;-25476.97;5035051;28;19985;-79
2022/06/10 03:47:18;;;;;;;;;;;;;;;14.58;100.00;-25477.13;5034468;28;19917;-77
2022/06/10 03:49:47;;;;;;;;;;;;;;;14.60;100.00;-25477.69;5032274;28;19984;-72
2022/06/10 03:52:23;;;;;;;;;;;;;;;14.52;100.00;-25475.50;5033447;28;20011;-73
2022/06/10 03:54:49;;;;;;;;;;;;;;;14.52;100.00;-25475.66;5054403;28;19951;-77
2022/06/10 03:57:15;;;;;;;;;;;;;;;14.60;100.00;-25477.84;5053213;28;19916;-73
2022/06/10 03:59:40;;;;;;;;;;;;;;;14.62;100.00;-25478.44;5052167;28;20325;-79
2022/06/10 04:02:06;;;;;;;;;;;;;;;14.65;100.00;-25479.31;5050263;28;19924;-77
2022/06/10 04:04:32;;;;;;;;;;;;;;;14.72;100.00;-25481.34;5047054;28;20336;-77
2022/06/10 04:06:57;;;;;;;;;;;;;;;14.68;100.00;-25480.19;5073317;28;19916;-72
2022/06/10 04:09:22;;;;;;;;;;;;;;;14.74;100.00;-25481.63;5073923;28;19920;-73
2022/06/10 04:11:48;;;;;;;;;;;;;;;14.77;100.00;-25482.66;5072757;28;19916;-77
2022/06/10 04:14:13;;;;;;;;;;;;;;;14.79;100.00;-25483.25;5071444;28;20376;-79
2022/06/10 04:16:38;;;;;;;;;;;;;;;14.86;100.00;-25485.13;5073512;28;19917;-76
2022/06/10 04:19:04;;;;;;;;;;;;;;;14.77;100.00;-25482.50;5092535;28;19961;-76
2022/06/10 04:21:29;;;;;;;;;;;;;;;14.75;100.00;-25481.94;5073588;28;20352;-75
2022/06/10 04:23:54;;;;;;;;;;;;;;;14.80;100.00;-25483.53;5068855;28;19924;-75
2022/06/10 04:26:20;;;;;;;;;;;;;;;14.88;100.00;-25485.72;5053281;28;19924;-74
2022/06/10 04:28:45;;;;;;;;;;;;;;;14.94;100.00;-25487.47;5073178;28;20014;-76
2022/06/10 04:31:11;;;;;;;;;;;;;;;14.92;100.00;-25486.88;5072344;28;19917;-73
2022/06/10 04:33:37;;;;;;;;;;;;;;;14.85;100.00;-25484.84;5072771;28;19911;-76
2022/06/10 04:36:03;;;;;;;;;;;;;;;14.80;100.00;-25483.38;5060899;28;19927;-75
2022/06/10 04:38:28;;;;;;;;;;;;;;;14.86;100.00;-25485.13;5044211;28;19920;-73
2022/06/10 04:40:53;;;;;;;;;;;;;;;14.83;100.00;-25484.41;5052989;28;19917;-73
2022/06/10 04:43:19;;;;;;;;;;;;;;;14.90;100.00;-25486.31;5055871;28;19936;-77
2022/06/10 04:45:49;;;;;;;;;;;;;;;14.93;100.00;-25487.03;5043783;28;20397;-73
2022/06/10 04:48:14;;;;;;;;;;;;;;;14.94;100.00;-25487.47;5062708;28;19932;-77
2022/06/10 04:50:40;;;;;;;;;;;;;;;14.94;100.00;-25487.47;5055611;28;19921;-74
2022/06/10 04:53:06;;;;;;;;;;;;;;;14.95;100.00;-25487.75;5057069;28;20376;-73
2022/06/10 04:55:31;;;;;;;;;;;;;;;15.06;100.00;-25490.81;5064607;28;19916;-75
2022/06/10 04:57:56;;;;;;;;;;;;;;;15.04;100.00;-25490.22;5056413;28;19920;-74
2022/06/10 05:00:29;;;;;;;;;;;;;;;15.10;100.00;-25491.81;5036463;28;20012;-73
2022/06/10 05:02:56;;;;;;;;;;;;;;;15.20;100.00;-25494.88;5036439;28;20328;-74
2022/06/10 05:05:22;;;;;;;;;;;;;;;15.16;100.00;-25493.56;5050240;28;19921;-79
2022/06/10 05:07:47;;;;;;;;;;;;;;;15.17;100.00;-25493.88;5040684;28;20284;-74
2022/06/10 05:10:13;;;;;;;;;;;;;;;15.23;100.00;-25495.75;5036536;28;19921;-72
2022/06/10 05:12:39;;;;;;;;;;;;;;;15.22;100.00;-25495.47;5035923;28;20312;-74
2022/06/10 05:15:04;;;;;;;;;;;;;;;15.23;100.00;-25495.75;5036049;28;20545;-72
2022/06/10 05:17:29;;;;;;;;;;;;;;;15.20;100.00;-25494.75;5035543;28;20016;-71
2022/06/10 05:19:55;;;;;;;;;;;;;;;15.17;100.00;-25494.00;5035715;28;19921;-77
2022/06/10 05:22:20;;;;;;;;;;;;;;;15.17;100.00;-25494.00;5038492;28;19921;-73
2022/06/10 05:24:47;;;;;;;;;;;;;;;15.19;100.00;-25494.59;5056331;28;19952;-76
2022/06/10 05:27:13;;;;;;;;;;;;;;;15.23;100.00;-25495.63;5052217;28;19960;-77
2022/06/10 05:29:38;;;;;;;;;;;;;;;15.30;100.00;-25497.66;5057029;28;19917;-81
2022/06/10 05:32:03;;;;;;;;;;;;;;;15.34;100.00;-25498.81;5056916;28;19917;-76
2022/06/10 05:34:44;;;;;;;;;;;;;;;15.36;100.00;-25499.41;5055904;28;20278;-79
2022/06/10 05:37:09;;;;;;;;;;;;;;;15.52;100.00;-25503.75;5042194;28;19928;-78
2022/06/10 05:39:37;;;;;;;;;;;;;;;15.61;100.00;-25506.53;5052230;28;19921;-77
2022/06/10 05:42:05;;;;;;;;;;;;;;;15.68;100.00;-25508.41;5039836;28;19932;-79
2022/06/10 05:44:31;;;;;;;;;;;;;;;15.71;100.00;-25509.28;5049694;28;20389;-77
2022/06/10 05:46:56;;;;;;;;;;;;;;;15.72;100.00;-25509.44;5055888;28;19928;-74
2022/06/10 05:49:23;;;;;;;;;;;;;;;15.79;100.00;-25511.63;5055270;28;20020;-74
2022/06/10 05:51:48;;;;;;;;;;;;;;;15.85;100.00;-25513.22;5055499;28;19920;-79
2022/06/10 05:54:15;;;;;;;;;;;;;;;15.84;100.00;-25512.78;5053992;28;19917;-75
2022/06/10 05:56:41;;;;;;;;;;;;;;;15.84;100.00;-25512.78;5054367;28;19916;-75
2022/06/10 05:59:06;;;;;;;;;;;;;;;15.87;100.00;-25513.66;5054964;28;19923;-74
2022/06/10 06:01:31;;;;;;;;;;;;;;;15.89;100.00;-25514.22;5054566;28;19920;-74
2022/06/10 06:03:58;;;;;;;;;;;;;;;15.98;100.00;-25516.84;5054843;28;20372;-75
2022/06/10 06:06:23;;;;;;;;;;;;;;;16.02;100.00;-25518.00;5055194;28;20256;-75
2022/06/10 06:08:49;;;;;;;;;;;;;;;16.05;100.00;-25518.88;5054407;28;19927;-74
2022/06/10 06:11:17;;;;;;;;;;;;;;;16.07;100.00;-25519.31;5059576;28;19930;-75
2022/06/10 06:13:43;;;;;;;;;;;;;;;16.12;100.00;-25520.91;5074887;28;19923;-78
2022/06/10 06:16:15;;;;;;;;;;;;;;;16.24;100.00;-25524.25;5075071;28;20061;-76
2022/06/10 06:18:40;;;;;;;;;;;;;;;16.35;100.00;-25527.16;5075109;28;20023;-75
2022/06/10 06:21:06;;;;;;;;;;;;;;;16.57;100.00;-25533.41;5069261;28;20002;-74
2022/06/10 06:23:31;;;;;;;;;;;;;;;16.63;100.00;-25535.16;5073718;28;19926;-74
2022/06/10 06:25:56;;;;;;;;;;;;;;;16.59;100.00;-25533.97;5063638;28;19924;-74
2022/06/10 06:28:22;;;;;;;;;;;;;;;16.62;100.00;-25535.00;5051395;28;19965;-76
2022/06/10 06:30:47;;;;;;;;;;;;;;;16.65;100.00;-25535.88;5052883;28;19925;-75
2022/06/10 06:33:13;;;;;;;;;;;;;;;16.96;100.00;-25544.44;5061845;28;19978;-73
2022/06/10 06:35:38;;;;;;;;;;;;;;;16.78;100.00;-25539.50;5073740;28;20011;-72
2022/06/10 06:38:04;;;;;;;;;;;;;;;16.78;100.00;-25539.50;5059048;28;19927;-73
2022/06/10 06:40:30;;;;;;;;;;;;;;;16.95;100.00;-25544.28;5045540;28;19920;-74
2022/06/10 06:42:58;;;;;;;;;;;;;;;17.12;100.00;-25549.06;5054547;28;19917;-73
2022/06/10 06:45:23;;;;;;;;;;;;;;;17.41;100.00;-25557.19;5053274;28;19920;-74
2022/06/10 06:47:50;;;;;;;;;;;;;;;17.65;100.00;-25564.00;5053804;28;19919;-73
2022/06/10 06:50:17;;;;;;;;;;;;;;;17.64;100.00;-25563.56;5053869;28;19968;-75
2022/06/10 06:52:42;;;;;;;;;;;;;;;17.74;100.00;-25566.47;5053718;28;19920;-73
2022/06/10 06:55:08;;;;;;;;;;;;;;;17.87;100.00;-25570.22;5054076;28;19916;-74
2022/06/10 06:57:33;;;;;;;;;;;;;;;17.90;100.00;-25571.09;5053664;28;19924;-77
2022/06/10 07:00:04;;;;;;;;;;;;;;;18.01;100.00;-25574.16;5054292;28;19916;-75
2022/06/10 07:02:30;;;;;;;;;;;;;;;18.20;100.00;-25579.34;5054705;28;19920;-75
2022/06/10 07:04:55;;;;;;;;;;;;;;;18.32;100.00;-24259.00;5053763;28;19931;-74
2022/06/10 07:07:20;;;;;;;;;;;;;;;18.43;100.00;-20955.00;5053784;28;19916;-75
2022/06/10 07:09:45;;;;;;;;;;;;;;;18.46;100.00;-17976.78;5053720;28;19916;-76
2022/06/10 07:12:11;;;;;;;;;;;;;;;18.38;100.00;-13669.09;5054211;28;19978;-76
2022/06/10 07:14:36;;;;;;;;;;;;;;;18.41;100.00;-11016.78;5053395;28;20288;-74
2022/06/10 07:17:02;;;;;;;;;;;;;;;18.43;100.00;-7366.44;5054535;28;19969;-75
2022/06/10 07:19:27;;;;;;;;;;;;;;;18.64;100.00;-5705.31;5053711;28;19928;-73
2022/06/10 07:21:52;;;;;;;;;;;;;;;18.68;100.00;-3710.97;5053190;28;19931;-75
2022/06/10 07:24:17;;;;;;;;;;;;;;;18.64;100.00;613.06;5054039;28;20337;-76
2022/06/10 07:26:43;;;;;;;;;;;;;;;18.71;100.00;3277.59;5052627;28;19928;-76
2022/06/10 07:29:10;;;;;;;;;;;;;;;18.82;100.00;4279.19;5053146;28;19923;-76
2022/06/10 07:31:39;;;;;;;;;;;;;;;18.78;100.00;4611.66;5053733;28;20340;-74
2022/06/10 07:34:06;;;;;;;;;;;;;;;18.89;100.00;4280.38;5052624;28;19916;-77
2022/06/10 07:36:32;;;;;;;;;;;;;;;18.46;100.00;4938.56;5053723;28;19916;-74
2022/06/10 07:38:57;;;;;;;;;;;;;;;18.57;100.00;3275.28;5053123;28;20607;-75
2022/06/10 07:44:06;;;;;;;;;;;;;;;18.70;100.00;4609.97;5071382;28;19963;-74
2022/06/10 07:46:31;;;;;;;;;;;;;;;18.75;100.00;7611.22;5052988;28;19956;-72
2022/06/10 07:48:57;;;;;;;;;;;;;;;19.02;100.00;9953.72;5053371;28;19925;-76
2022/06/10 07:51:23;;;;;;;;;;;;;;;19.04;100.00;16302.31;5036940;28;19916;-77
2022/06/10 07:53:49;;;;;;;;;;;;;;;19.18;100.00;20323.31;5052686;28;20003;-75
2022/06/10 07:56:15;;;;;;;;;;;;;;;19.20;100.00;23338.44;5053174;28;20433;-75
2022/06/10 07:58:41;;;;;;;;;;;;;;;19.25;100.00;20661.13;5052956;28;19964;-75
2022/06/10 08:01:07;;;;;;;;;;;;;;;19.13;100.00;25345.63;5053163;28;19917;-74
2022/06/10 08:03:32;;;;;;;;;;;;;;;18.99;100.00;32047.03;5053032;28;20014;-74
2022/06/10 08:05:59;;;;;;;;;;;;;;;18.95;100.00;32380.13;5052998;28;19917;-73
2022/06/10 08:08:24;;;;;;;;;;;;;;;18.95;100.00;37419.09;5052981;28;19927;-72
2022/06/10 08:10:49;;;;;;;;;;;;;;;18.85;100.00;40774.09;5052419;28;19921;-72
2022/06/10 08:13:16;;;;;;;;;;;;;;;18.90;100.00;45490.13;5053453;28;19942;-74
2022/06/10 08:15:42;;;;;;;;;;;;;;;19.05;100.00;47187.91;5052013;28;19916;-73
2022/06/10 08:18:07;;;;;;;;;;;;;;;19.31;100.00;54973.34;5055143;28;20292;-75
2022/06/10 08:23:18;;;;;;;;;;;;;;;19.59;100.00;72954.66;5074693;28;20053;-75
2022/06/10 08:25:44;;;;;;;;;;;;;;;20.03;100.00;84238.22;5056077;28;20007;-74
2022/06/10 08:28:09;;;;;;;;;;;;;;;20.37;100.00;118865.09;5057210;28;19924;-74
2022/06/10 08:30:35;;;;;;;;;;;;;;;21.09;100.00;143590.13;5056384;28;19923;-78
2022/06/10 08:33:03;;;;;;;;;;;;;;;21.56;100.00;148141.66;5056912;28;19920;-75
2022/06/10 08:35:28;;;;;;;;;;;;;;;22.18;100.00;148296.81;5056686;28;20284;-74
2022/06/10 08:37:54;;;;;;;;;;;;;;;22.59;100.00;148399.53;5051894;28;19927;-75
2022/06/10 08:40:29;;;;;;;;;;;;;;;22.73;100.00;148434.16;5036317;28;19927;-74
2022/06/10 08:43:01;;;;;;;;;;;;;;;22.98;100.00;148494.44;5053237;28;20003;-78
2022/06/10 08:45:34;;;;;;;;;;;;;;;23.93;100.00;148733.34;5052569;28;19917;-75
2022/06/10 08:48:06;;;;;;;;;;;;;;;24.07;100.00;148768.00;5052999;28;19932;-75
2022/06/10 08:50:50;;;;;;;;;;;;;;;24.44;100.00;148859.19;5052509;28;19960;-73
2022/06/10 08:53:34;;;;;;;;;;;;;;;24.55;100.00;148887.47;5052756;28;20019;-78
2022/06/10 08:56:03;;;;;;;;;;;;;;;24.98;100.00;148995.41;5053263;28;19917;-76
2022/06/10 08:58:41;;;;;;;;;;;;;;;24.91;100.00;148978.72;5052244;28;19960;-77
2022/06/10 09:01:12;;;;;;;;;;;;;;;24.18;100.00;148796.25;5052752;28;19921;-74
2022/06/10 09:03:47;;;;;;;;;;;;;;;23.90;100.00;148725.63;5052522;28;19919;-74
2022/06/10 09:06:28;;;;;;;;;;;;;;;24.48;100.00;148869.47;5052575;28;19962;-73
2022/06/10 09:08:55;;;;;;;;;;;;;;;24.56;100.00;148890.00;5052875;28;19960;-75
2022/06/10 09:11:46;;;;;;;;;;;;;;;24.70;100.00;148926.06;5052324;28;19935;-74
2022/06/10 09:14:16;;;;;;;;;;;;;;;24.85;100.00;148962.03;5049914;28;20450;-74
2022/06/10 09:16:53;;;;;;;;;;;;;;;24.22;100.00;148805.22;5052291;28;19917;-73
2022/06/10 09:19:22;;;;;;;;;;;;;;;23.85;100.00;148712.81;5051682;28;19917;-73
2022/06/10 09:21:59;;;;;;;;;;;;;;;24.26;100.00;148815.53;5052027;28;19917;-73
2022/06/10 09:24:29;;;;;;;;;;;;;;;23.92;100.00;148730.75;5052031;28;19928;-77
2022/06/10 09:27:20;;;;;;;;;;;;;;;23.94;100.00;148735.91;5051485;28;20015;-76
2022/06/10 09:29:45;;;;;;;;;;;;;;;23.87;100.00;148717.94;5045814;28;20284;-76
2022/06/10 09:32:18;;;;;;;;;;;;;;;24.55;100.00;148888.75;5051898;28;20376;-75
2022/06/10 09:35:10;;;;;;;;;;;;;;;24.22;100.00;148803.97;5051641;28;19928;-75
2022/06/10 09:37:54;;;;;;;;;;;;;;;24.93;100.00;148981.31;5049653;28;19920;-76
2022/06/10 09:40:38;;;;;;;;;;;;;;;24.74;100.00;148935.03;5051987;28;19963;-75
2022/06/10 09:43:24;;;;;;;;;;;;;;;24.63;100.00;148908.06;5035182;28;20589;-75
2022/06/10 09:46:11;;;;;;;;;;;;;;;24.72;100.00;148929.91;5054105;28;20523;-77
2022/06/10 09:48:49;;;;;;;;;;;;;;;24.29;100.00;148821.97;5049172;28;19921;-78
2022/06/10 09:51:33;;;;;;;;;;;;;;;24.17;100.00;148792.41;5052894;28;19917;-79
2022/06/10 09:54:27;;;;;;;;;;;;;;;24.07;100.00;148766.75;5052661;28;19921;-74
2022/06/10 09:56:55;;;;;;;;;;;;;;;22.89;100.00;148473.94;5053185;28;19960;-76
2022/06/10 09:59:27;;;;;;;;;;;;;;;22.46;100.00;148366.16;5053071;28;19924;-76
2022/06/10 10:02:10;;;;;;;;;;;;;;;23.25;100.00;148563.81;5051805;28;19920;-77
2022/06/10 10:04:46;;;;;;;;;;;;;;;22.62;100.00;148405.91;5052548;28;19928;-77
2022/06/10 10:07:30;;;;;;;;;;;;;;;21.84;100.00;148212.16;5052629;28;19936;-78
2022/06/10 10:10:14;;;;;;;;;;;;;;;21.96;100.00;148241.69;5052504;28;19929;-77
2022/06/10 10:12:45;;;;;;;;;;;;;;;22.34;100.00;148335.34;5052741;28;20439;-77
2022/06/10 10:15:11;;;;;;;;;;;;;;;21.93;100.00;148232.72;5052274;28;19929;-77
2022/06/10 10:18:06;;;;;;;;;;;;;;;21.75;100.00;148189.13;5052197;28;19917;-76
2022/06/10 10:20:56;;;;;;;;;;;;;;;21.38;100.00;148096.78;5052329;28;20349;-79
2022/06/10 10:23:34;;;;;;;;;;;;;;;21.34;100.00;148086.50;5051923;28;19944;-75
2022/06/10 10:25:59;;;;;;;;;;;;;;;21.90;100.00;148226.28;5052411;28;19916;-76
2022/06/10 10:28:30;;;;;;;;;;;;;;;22.78;100.00;148445.72;5051699;28;20268;-75
2022/06/10 10:30:59;;;;;;;;;;;;;;;23.17;100.00;148542.03;5051245;28;19923;-77
2022/06/10 10:33:24;;;;;;;;;;;;;;;23.01;100.00;148503.47;5051097;28;19916;-76
2022/06/10 10:35:53;;;;;;;;;;;;;;;22.56;100.00;148391.81;5051121;28;19916;-77
2022/06/10 10:38:48;;;;;;;;;;;;;;;22.39;100.00;148348.22;5050917;28;20273;-79
2022/06/10 10:41:32;;;;;;;;;;;;;;;22.52;100.00;148381.53;5042646;28;20387;-77
2022/06/10 10:44:23;;;;;;;;;;;;;;;22.96;100.00;148490.59;5051240;28;20059;-73
2022/06/10 10:46:58;;;;;;;;;;;;;;;23.34;100.00;148585.66;5051392;28;20508;-72
2022/06/10 10:49:28;;;;;;;;;;;;;;;23.18;100.00;148545.88;5050838;28;20400;-74
2022/06/10 10:51:54;;;;;;;;;;;;;;;23.14;100.00;148535.59;5050299;28;20389;-75
2022/06/10 10:54:33;;;;;;;;;;;;;;;22.91;100.00;148477.78;5051612;28;19924;-73
2022/06/10 10:56:59;;;;;;;;;;;;;;;22.59;100.00;148399.53;5052133;28;19928;-80
2022/06/10 10:59:35;;;;;;;;;;;;;;;22.66;100.00;148414.91;5052027;28;19916;-77
2022/06/10 11:02:02;;;;;;;;;;;;;;;22.35;100.00;148339.19;5052100;28;19955;-79
2022/06/10 11:04:35;;;;;;;;;;;;;;;21.92;100.00;148230.16;5050731;28;19920;-76
2022/06/10 11:07:05;;;;;;;;;;;;;;;21.78;100.00;148196.84;5051754;28;19935;-78
2022/06/10 11:09:31;;;;;;;;;;;;;;;22.54;100.00;148385.41;5051030;28;19917;-78
2022/06/10 11:11:57;;;;;;;;;;;;;;;23.20;100.00;148549.72;5050759;28;20472;-79
2022/06/10 11:14:31;;;;;;;;;;;;;;;23.25;100.00;148563.81;5050447;28;19924;-78
2022/06/10 11:17:02;;;;;;;;;;;;;;;23.39;100.00;148597.19;5050476;28;19970;-78
2022/06/10 11:19:30;;;;;;;;;;;;;;;22.45;100.00;148362.28;5051128;28;19917;-75
2022/06/10 11:22:09;;;;;;;;;;;;;;;22.30;100.00;148325.06;5050825;28;19920;-75
2022/06/10 11:24:39;;;;;;;;;;;;;;;22.68;100.00;148420.03;5050547;28;20039;-75
2022/06/10 11:27:24;;;;;;;;;;;;;;;22.56;100.00;148391.81;5051262;28;19962;-77
2022/06/10 11:29:58;;;;;;;;;;;;;;;23.06;100.00;148515.03;5050134;28;20591;-74
2022/06/10 11:32:26;;;;;;;;;;;;;;;22.75;100.00;148438.00;5052276;28;19935;-76
2022/06/10 11:34:58;;;;;;;;;;;;;;;22.43;100.00;148358.44;5050293;28;19917;-77
2022/06/10 11:37:42;;;;;;;;;;;;;;;22.21;100.00;148304.53;5050917;28;19967;-75
2022/06/10 11:40:15;;;;;;;;;;;;;;;22.20;100.00;148302.00;5048919;28;19928;-76
2022/06/10 11:42:50;;;;;;;;;;;;;;;22.32;100.00;148330.25;5050814;28;20059;-75
2022/06/10 11:45:32;;;;;;;;;;;;;;;22.91;100.00;148479.06;5051079;28;19921;-79
2022/06/10 11:48:04;;;;;;;;;;;;;;;23.54;100.00;148635.72;5051623;28;19917;-78
2022/06/10 11:50:33;;;;;;;;;;;;;;;23.70;100.00;148674.25;5051654;28;19951;-78
2022/06/10 11:53:10;;;;;;;;;;;;;;;23.45;100.00;148612.59;5050706;28;19939;-78
2022/06/10 11:55:38;;;;;;;;;;;;;;;23.39;100.00;148598.47;5051493;28;19916;-79
2022/06/10 12:01:00;;;;;;;;;;;;;;;23.92;100.00;148730.75;5051058;28;20379;-77
2022/06/10 12:03:34;;;;;;;;;;;;;;;23.86;100.00;148715.34;5050029;28;20003;-76
2022/06/10 12:06:08;;;;;;;;;;;;;;;23.99;100.00;148747.47;5049914;28;19971;-75
2022/06/10 12:08:43;;;;;;;;;;;;;;;23.83;100.00;148707.59;5050124;28;19921;-74
2022/06/10 12:11:24;;;;;;;;;;;;;;;23.91;100.00;148726.91;5050722;28;20059;-76
2022/06/10 12:14:09;;;;;;;;;;;;;;;24.10;100.00;148775.72;5049901;28;20279;-76
2022/06/10 12:16:35;;;;;;;;;;;;;;;24.49;100.00;148873.31;5041212;28;19924;-76
2022/06/10 12:19:06;;;;;;;;;;;;;;;24.23;100.00;148807.81;5049479;28;19916;-73
2022/06/10 12:21:32;;;;;;;;;;;;;;;23.93;100.00;148733.34;5049106;28;19967;-73
2022/06/10 12:23:58;;;;;;;;;;;;;;;23.89;100.00;148723.06;5048849;28;19924;-77
2022/06/10 12:26:45;;;;;;;;;;;;;;;24.41;100.00;148851.47;5049386;28;19932;-75
2022/06/10 12:29:15;;;;;;;;;;;;;;;24.86;100.00;148965.88;5048589;28;19917;-75
2022/06/10 12:31:41;;;;;;;;;;;;;;;24.96;100.00;148990.28;5049393;28;20304;-74
2022/06/10 12:34:06;;;;;;;;;;;;;;;25.06;100.00;149014.69;5049894;28;19924;-77
2022/06/10 12:36:52;;;;;;;;;;;;;;;25.26;100.00;149064.81;5049473;28;20310;-72
2022/06/10 12:39:21;;;;;;;;;;;;;;;25.35;100.00;149088.00;5049762;28;19958;-76
2022/06/10 12:41:50;;;;;;;;;;;;;;;24.25;100.00;148812.94;5050828;28;20295;-80
2022/06/10 12:44:22;;;;;;;;;;;;;;;24.01;100.00;148753.88;5051009;28;19958;-78
2022/06/10 12:46:50;;;;;;;;;;;;;;;23.89;100.00;148723.06;5034465;28;19921;-75
2022/06/10 12:49:39;;;;;;;;;;;;;;;24.05;100.00;148762.91;5049129;28;20460;-76
2022/06/10 12:52:19;;;;;;;;;;;;;;;24.24;100.00;148810.41;5041597;28;19917;-75
2022/06/10 12:54:51;;;;;;;;;;;;;;;24.01;100.00;148752.59;5049632;28;19917;-74
2022/06/10 12:57:22;;;;;;;;;;;;;;;24.04;100.00;148760.31;5049390;28;19967;-75
2022/06/10 12:59:48;;;;;;;;;;;;;;;24.25;100.00;148811.66;5049741;28;19916;-78